Hansa Rendsburg — A8CF4 — position and weather

sailwx.info

Track history (hours):
 
Tides and Currents Weather Stations Pressure Air Temp Water Temp Dewpoint Dewpoint Depression Visibility Wind Speed Wind Dir Waves Ship Positions

Hansa Rendsburg

Last reported at 2017-Oct-20 08:43 UTC. Time now 2017-Oct-22 08:31 UTC.
Position N 09°17' W 013°43'.

Type: Cargo ship. MMSI: 636090636.

Date/timePositionNaut miles runAvg speedWind from/ knotsBaromVisibWave heightAir tempDewpointWater temp
2017-Oct-20 08:43N 09°17' W 013°43'210.5
2017-Oct-20 08:30N 09°19' W 013°43'510.4
2017-Oct-20 08:00N 09°24' W 013°43'4 9.0
2017-Oct-20 07:30N 09°29' W 013°44'2 3.8
2017-Oct-20 07:00N 09°31' W 013°43'0 0.1
2017-Oct-20 06:27N 09°31' W 013°43'0 0.0
2017-Oct-20 06:00N 09°31' W 013°43'0 0.0
2017-Oct-20 05:30N 09°31' W 013°43'0 0.0
2017-Oct-20 05:00N 09°31' W 013°43'0 0.0
2017-Oct-20 04:30N 09°31' W 013°43'0 0.0
2017-Oct-20 04:00N 09°31' W 013°43'0 0.0
2017-Oct-20 03:30N 09°31' W 013°43'0 0.0
2017-Oct-20 03:00N 09°31' W 013°43'0 0.0
2017-Oct-20 02:30N 09°31' W 013°43'0 0.0
2017-Oct-20 02:00N 09°31' W 013°43'0 0.0
2017-Oct-20 01:30N 09°31' W 013°43'0 0.0
2017-Oct-20 01:00N 09°31' W 013°43'0 0.0
2017-Oct-20 00:30N 09°31' W 013°43'0 0.0
2017-Oct-20 00:00N 09°31' W 013°43'0 0.0
2017-Oct-19 23:30N 09°31' W 013°43'0 0.0
2017-Oct-19 23:00N 09°31' W 013°43'0 0.0
2017-Oct-19 22:30N 09°31' W 013°43'0 0.0
2017-Oct-19 21:57N 09°31' W 013°43'0 0.0
2017-Oct-19 21:30N 09°31' W 013°43'0 0.0
2017-Oct-19 21:00N 09°31' W 013°43'0 0.0
2017-Oct-19 20:30N 09°31' W 013°43'0 0.0
2017-Oct-19 20:00N 09°31' W 013°43'0 0.0
2017-Oct-19 19:30N 09°31' W 013°43'0 0.0
2017-Oct-19 18:57N 09°31' W 013°43'0 0.0
2017-Oct-19 18:30N 09°31' W 013°43'0 0.0
2017-Oct-19 18:00N 09°31' W 013°43'0 0.0
2017-Oct-19 17:30N 09°31' W 013°43'0 0.0
2017-Oct-19 17:00N 09°31' W 013°43'0 0.0
2017-Oct-19 16:30N 09°31' W 013°43'0 0.0
2017-Oct-19 16:00N 09°31' W 013°43'0 0.0
2017-Oct-19 15:30N 09°31' W 013°43'0 0.0
2017-Oct-19 15:00N 09°31' W 013°43'0 0.0
2017-Oct-19 14:30N 09°31' W 013°43'0 0.0
2017-Oct-19 14:00N 09°31' W 013°43'0 0.0
2017-Oct-19 13:30N 09°31' W 013°43'0 0.0
2017-Oct-19 13:00N 09°31' W 013°43'0 0.0
2017-Oct-19 12:30N 09°31' W 013°43'0 0.0
2017-Oct-19 12:00N 09°31' W 013°43'0 0.0
2017-Oct-19 11:30N 09°31' W 013°43'0 0.0
2017-Oct-19 11:00N 09°31' W 013°43'0 0.0
2017-Oct-19 10:30N 09°31' W 013°43'0 0.0
2017-Oct-19 10:00N 09°31' W 013°43'0 0.0
2017-Oct-19 09:30N 09°31' W 013°43'0 0.0
2017-Oct-19 08:57N 09°31' W 013°43'0 0.0
2017-Oct-19 08:30N 09°31' W 013°43'0 0.0
2017-Oct-19 08:00N 09°31' W 013°43'0 0.0
2017-Oct-19 07:30N 09°31' W 013°43'0 0.7
2017-Oct-19 07:00N 09°30' W 013°44'3 5.9
2017-Oct-19 06:30N 09°27' W 013°43'8 5.4
2017-Oct-19 04:59N 09°20' W 013°48'714.9
2017-Oct-19 04:30N 09°20' W 013°55'714.7
2017-Oct-19 04:00N 09°21' W 014°02'714.9
2017-Oct-19 03:30N 09°23' W 014°10'11 6.8
2017-Oct-19 01:49N 09°26' W 014°21'0 0.3
2017-Oct-19 01:05N 09°26' W 014°21'0 0.4
2017-Oct-19 00:58N 09°26' W 014°21'1 0.8
2017-Oct-18 23:20N 09°26' W 014°19'1 0.9
2017-Oct-18 22:46N 09°26' W 014°19'2 0.5
2017-Oct-18 19:39N 09°27' W 014°17'0 0.7
2017-Oct-18 19:30N 09°26' W 014°17'0 0.8
2017-Oct-18 18:57N 09°26' W 014°17'1 1.0
2017-Oct-18 18:21N 09°25' W 014°17'0 1.0
2017-Oct-18 17:59N 09°25' W 014°17'1 1.1
2017-Oct-18 17:28N 09°24' W 014°17'1 1.2
2017-Oct-18 17:00N 09°24' W 014°17'1 1.3
2017-Oct-18 16:30N 09°23' W 014°17'1 1.3
2017-Oct-18 16:01N 09°23' W 014°18'1 1.2
2017-Oct-18 15:29N 09°22' W 014°18'1 0.9
2017-Oct-18 14:55N 09°22' W 014°18'1 0.7
2017-Oct-18 13:52N 09°21' W 014°17'0 0.4
2017-Oct-18 13:28N 09°21' W 014°17'0 0.5
2017-Oct-18 13:00N 09°21' W 014°17'0 0.7
2017-Oct-18 12:30N 09°21' W 014°17'0 0.9
2017-Oct-18 12:00N 09°21' W 014°16'1 1.1
2017-Oct-18 11:30N 09°21' W 014°16'1 1.3
2017-Oct-18 10:58N 09°22' W 014°15'1 1.2
2017-Oct-18 10:30N 09°22' W 014°15'1 1.2
2017-Oct-18 10:00N 09°22' W 014°14'1 1.2
2017-Oct-18 09:30N 09°23' W 014°14'0 1.0
2017-Oct-18 09:00N 09°23' W 014°13'0 0.8
2017-Oct-18 08:30N 09°23' W 014°13'0 0.6
2017-Oct-18 08:00N 09°23' W 014°12'0 0.7
2017-Oct-18 07:30N 09°22' W 014°12'0 0.7
2017-Oct-18 07:00N 09°22' W 014°12'0 0.7
2017-Oct-18 06:30N 09°22' W 014°12'0 0.4
2017-Oct-18 06:00N 09°22' W 014°12'1 1.6
2017-Oct-18 05:30N 09°22' W 014°12'5 8.5
2017-Oct-18 04:58N 09°24' W 014°16'510.5
2017-Oct-18 04:29N 09°26' W 014°21'611.4
2017-Oct-18 03:55N 09°27' W 014°28'711.4
2017-Oct-18 03:18N 09°29' W 014°35'311.5
2017-Oct-18 03:00N 09°30' W 014°38'  
2017-Oct-14 05:28N 26°49' W 014°15'714.5
2017-Oct-14 05:01N 26°54' W 014°11'714.4
2017-Oct-14 04:30N 26°60' W 014°06'714.2
2017-Oct-14 04:00N 27°06' W 014°02'714.4
2017-Oct-14 03:30N 27°12' W 013°57'714.4
2017-Oct-14 03:00N 27°18' W 013°52'714.4
2017-Oct-14 02:30N 27°24' W 013°48'714.4
2017-Oct-14 02:00N 27°29' W 013°43'714.4
2017-Oct-14 01:30N 27°35' W 013°38'714.7
2017-Oct-14 01:00N 27°41' W 013°33'714.5
2017-Oct-14 00:30N 27°47' W 013°29'714.5
2017-Oct-14 00:00N 27°53' W 013°24'814.9
2017-Oct-13 23:30N 27°59' W 013°19'34013.7
2017-Oct-12 22:39N 32°37' W 009°32'313.1
2017-Oct-12 22:23N 32°40' W 009°30'613.3
2017-Oct-12 21:58N 32°44' W 009°26'613.5
2017-Oct-12 21:29N 32°49' W 009°20'3913.4
2017-Oct-12 18:33N 33°18' W 008°49'112.4
2017-Oct-12 18:26N 33°19' W 008°48'613.3
2017-Oct-12 18:00N 33°23' W 008°43'713.4
2017-Oct-12 17:30N 33°28' W 008°38'713.5
2017-Oct-12 17:00N 33°33' W 008°32'713.6
2017-Oct-12 16:30N 33°38' W 008°27'713.8
2017-Oct-12 16:00N 33°43' W 008°21'714.0
2017-Oct-12 15:29N 33°48' W 008°15'714.0
2017-Oct-12 15:00N 33°53' W 008°09'714.1
2017-Oct-12 14:30N 33°59' W 008°04'713.9
2017-Oct-12 14:00N 34°04' W 007°58'713.7
2017-Oct-12 13:30N 34°09' W 007°53'713.1
2017-Oct-12 13:00N 34°14' W 007°47'7912.7
2017-Oct-12 06:46N 35°12' W 006°43'413.2
2017-Oct-12 06:28N 35°15' W 006°39'713.3
2017-Oct-12 05:57N 35°20' W 006°33'5213.1
2017-Oct-12 01:59N 35°56' W 005°47'1013.1
2017-Oct-12 01:12N 35°57' W 005°35'313.1
2017-Oct-12 01:00N 35°58' W 005°32'612.3
2017-Oct-12 00:30N 36°01' W 005°25'510.2
2017-Oct-12 00:00N 36°06' W 005°24'2 3.5
2017-Oct-11 23:28N 36°08' W 005°25'0 0.0
2017-Oct-11 22:58N 36°08' W 005°25'0 0.0
2017-Oct-11 22:28N 36°08' W 005°25'0 0.0
2017-Oct-11 21:58N 36°08' W 005°25'0 0.0
2017-Oct-11 21:28N 36°08' W 005°25'0 0.0
2017-Oct-11 20:58N 36°08' W 005°25'0 0.0
2017-Oct-11 20:28N 36°08' W 005°25'0 0.0
2017-Oct-11 19:58N 36°08' W 005°25'2 0.1
2017-Oct-11 00:00N 36°10' W 005°26'8 2.4
2017-Oct-10 20:47N 36°02' W 005°22'411.9
2017-Oct-10 20:28N 35°59' W 005°24'4 8.3
2017-Oct-10 20:01N 35°57' W 005°27'3 6.6
2017-Oct-10 19:29N 35°54' W 005°30'  
Track history (hours):
 
Tides and Currents Weather Stations Pressure Air Temp Water Temp Dewpoint Dewpoint Depression Visibility Wind Speed Wind Dir Waves Ship Positions

Hansa Rendsburg

Last reported at 2017-Oct-20 08:43 UTC. Time now 2017-Oct-22 08:31 UTC.
Position N 09°17' W 013°43'.

Type: Cargo ship. MMSI: 636090636.

Date/timePositionNaut miles runAvg speedWind from/ knotsBaromVisibWave heightAir tempDewpointWater temp
2017-Oct-20 08:43N 09°17' W 013°43'210.5
2017-Oct-20 08:30N 09°19' W 013°43'510.4
2017-Oct-20 08:00N 09°24' W 013°43'4 9.0
2017-Oct-20 07:30N 09°29' W 013°44'2 3.8
2017-Oct-20 07:00N 09°31' W 013°43'0 0.1
2017-Oct-20 06:27N 09°31' W 013°43'0 0.0
2017-Oct-20 06:00N 09°31' W 013°43'0 0.0
2017-Oct-20 05:30N 09°31' W 013°43'0 0.0
2017-Oct-20 05:00N 09°31' W 013°43'0 0.0
2017-Oct-20 04:30N 09°31' W 013°43'0 0.0
2017-Oct-20 04:00N 09°31' W 013°43'0 0.0
2017-Oct-20 03:30N 09°31' W 013°43'0 0.0
2017-Oct-20 03:00N 09°31' W 013°43'0 0.0
2017-Oct-20 02:30N 09°31' W 013°43'0 0.0
2017-Oct-20 02:00N 09°31' W 013°43'0 0.0
2017-Oct-20 01:30N 09°31' W 013°43'0 0.0
2017-Oct-20 01:00N 09°31' W 013°43'0 0.0
2017-Oct-20 00:30N 09°31' W 013°43'0 0.0
2017-Oct-20 00:00N 09°31' W 013°43'0 0.0
2017-Oct-19 23:30N 09°31' W 013°43'0 0.0
2017-Oct-19 23:00N 09°31' W 013°43'0 0.0
2017-Oct-19 22:30N 09°31' W 013°43'0 0.0
2017-Oct-19 21:57N 09°31' W 013°43'0 0.0
2017-Oct-19 21:30N 09°31' W 013°43'0 0.0
2017-Oct-19 21:00N 09°31' W 013°43'0 0.0
2017-Oct-19 20:30N 09°31' W 013°43'0 0.0
2017-Oct-19 20:00N 09°31' W 013°43'0 0.0
2017-Oct-19 19:30N 09°31' W 013°43'0 0.0
2017-Oct-19 18:57N 09°31' W 013°43'0 0.0
2017-Oct-19 18:30N 09°31' W 013°43'0 0.0
2017-Oct-19 18:00N 09°31' W 013°43'0 0.0
2017-Oct-19 17:30N 09°31' W 013°43'0 0.0
2017-Oct-19 17:00N 09°31' W 013°43'0 0.0
2017-Oct-19 16:30N 09°31' W 013°43'0 0.0
2017-Oct-19 16:00N 09°31' W 013°43'0 0.0
2017-Oct-19 15:30N 09°31' W 013°43'0 0.0
2017-Oct-19 15:00N 09°31' W 013°43'0 0.0
2017-Oct-19 14:30N 09°31' W 013°43'0 0.0
2017-Oct-19 14:00N 09°31' W 013°43'0 0.0
2017-Oct-19 13:30N 09°31' W 013°43'0 0.0
2017-Oct-19 13:00N 09°31' W 013°43'0 0.0
2017-Oct-19 12:30N 09°31' W 013°43'0 0.0
2017-Oct-19 12:00N 09°31' W 013°43'0 0.0
2017-Oct-19 11:30N 09°31' W 013°43'0 0.0
2017-Oct-19 11:00N 09°31' W 013°43'0 0.0
2017-Oct-19 10:30N 09°31' W 013°43'0 0.0
2017-Oct-19 10:00N 09°31' W 013°43'0 0.0
2017-Oct-19 09:30N 09°31' W 013°43'0 0.0
2017-Oct-19 08:57N 09°31' W 013°43'0 0.0
2017-Oct-19 08:30N 09°31' W 013°43'0 0.0
2017-Oct-19 08:00N 09°31' W 013°43'0 0.0
2017-Oct-19 07:30N 09°31' W 013°43'0 0.7
2017-Oct-19 07:00N 09°30' W 013°44'3 5.9
2017-Oct-19 06:30N 09°27' W 013°43'8 5.4
2017-Oct-19 04:59N 09°20' W 013°48'714.9
2017-Oct-19 04:30N 09°20' W 013°55'714.7
2017-Oct-19 04:00N 09°21' W 014°02'714.9
2017-Oct-19 03:30N 09°23' W 014°10'11 6.8
2017-Oct-19 01:49N 09°26' W 014°21'0 0.3
2017-Oct-19 01:05N 09°26' W 014°21'0 0.4
2017-Oct-19 00:58N 09°26' W 014°21'1 0.8
2017-Oct-18 23:20N 09°26' W 014°19'1 0.9
2017-Oct-18 22:46N 09°26' W 014°19'2 0.5
2017-Oct-18 19:39N 09°27' W 014°17'0 0.7
2017-Oct-18 19:30N 09°26' W 014°17'0 0.8
2017-Oct-18 18:57N 09°26' W 014°17'1 1.0
2017-Oct-18 18:21N 09°25' W 014°17'0 1.0
2017-Oct-18 17:59N 09°25' W 014°17'1 1.1
2017-Oct-18 17:28N 09°24' W 014°17'1 1.2
2017-Oct-18 17:00N 09°24' W 014°17'1 1.3
2017-Oct-18 16:30N 09°23' W 014°17'1 1.3
2017-Oct-18 16:01N 09°23' W 014°18'1 1.2
2017-Oct-18 15:29N 09°22' W 014°18'1 0.9
2017-Oct-18 14:55N 09°22' W 014°18'1 0.7
2017-Oct-18 13:52N 09°21' W 014°17'0 0.4
2017-Oct-18 13:28N 09°21' W 014°17'0 0.5
2017-Oct-18 13:00N 09°21' W 014°17'0 0.7
2017-Oct-18 12:30N 09°21' W 014°17'0 0.9
2017-Oct-18 12:00N 09°21' W 014°16'1 1.1
2017-Oct-18 11:30N 09°21' W 014°16'1 1.3
2017-Oct-18 10:58N 09°22' W 014°15'1 1.2
2017-Oct-18 10:30N 09°22' W 014°15'1 1.2
2017-Oct-18 10:00N 09°22' W 014°14'1 1.2
2017-Oct-18 09:30N 09°23' W 014°14'0 1.0
2017-Oct-18 09:00N 09°23' W 014°13'0 0.8
2017-Oct-18 08:30N 09°23' W 014°13'0 0.6
2017-Oct-18 08:00N 09°23' W 014°12'0 0.7
2017-Oct-18 07:30N 09°22' W 014°12'0 0.7
2017-Oct-18 07:00N 09°22' W 014°12'0 0.7
2017-Oct-18 06:30N 09°22' W 014°12'0 0.4
2017-Oct-18 06:00N 09°22' W 014°12'1 1.6
2017-Oct-18 05:30N 09°22' W 014°12'5 8.5
2017-Oct-18 04:58N 09°24' W 014°16'510.5
2017-Oct-18 04:29N 09°26' W 014°21'611.4
2017-Oct-18 03:55N 09°27' W 014°28'711.4
2017-Oct-18 03:18N 09°29' W 014°35'311.5
2017-Oct-18 03:00N 09°30' W 014°38'  
2017-Oct-14 05:28N 26°49' W 014°15'714.5
2017-Oct-14 05:01N 26°54' W 014°11'714.4
2017-Oct-14 04:30N 26°60' W 014°06'714.2
2017-Oct-14 04:00N 27°06' W 014°02'714.4
2017-Oct-14 03:30N 27°12' W 013°57'714.4
2017-Oct-14 03:00N 27°18' W 013°52'714.4
2017-Oct-14 02:30N 27°24' W 013°48'714.4
2017-Oct-14 02:00N 27°29' W 013°43'714.4
2017-Oct-14 01:30N 27°35' W 013°38'714.7
2017-Oct-14 01:00N 27°41' W 013°33'714.5
2017-Oct-14 00:30N 27°47' W 013°29'714.5
2017-Oct-14 00:00N 27°53' W 013°24'814.9
2017-Oct-13 23:30N 27°59' W 013°19'34013.7
2017-Oct-12 22:39N 32°37' W 009°32'313.1
2017-Oct-12 22:23N 32°40' W 009°30'613.3
2017-Oct-12 21:58N 32°44' W 009°26'613.5
2017-Oct-12 21:29N 32°49' W 009°20'3913.4
2017-Oct-12 18:33N 33°18' W 008°49'112.4
2017-Oct-12 18:26N 33°19' W 008°48'613.3
2017-Oct-12 18:00N 33°23' W 008°43'713.4
2017-Oct-12 17:30N 33°28' W 008°38'713.5
2017-Oct-12 17:00N 33°33' W 008°32'713.6
2017-Oct-12 16:30N 33°38' W 008°27'713.8
2017-Oct-12 16:00N 33°43' W 008°21'714.0
2017-Oct-12 15:29N 33°48' W 008°15'714.0
2017-Oct-12 15:00N 33°53' W 008°09'714.1
2017-Oct-12 14:30N 33°59' W 008°04'713.9
2017-Oct-12 14:00N 34°04' W 007°58'713.7
2017-Oct-12 13:30N 34°09' W 007°53'713.1
2017-Oct-12 13:00N 34°14' W 007°47'7912.7
2017-Oct-12 06:46N 35°12' W 006°43'413.2
2017-Oct-12 06:28N 35°15' W 006°39'713.3
2017-Oct-12 05:57N 35°20' W 006°33'5213.1
2017-Oct-12 01:59N 35°56' W 005°47'1013.1
2017-Oct-12 01:12N 35°57' W 005°35'313.1
2017-Oct-12 01:00N 35°58' W 005°32'612.3
2017-Oct-12 00:30N 36°01' W 005°25'510.2
2017-Oct-12 00:00N 36°06' W 005°24'2 3.5
2017-Oct-11 23:28N 36°08' W 005°25'0 0.0
2017-Oct-11 22:58N 36°08' W 005°25'0 0.0
2017-Oct-11 22:28N 36°08' W 005°25'0 0.0
2017-Oct-11 21:58N 36°08' W 005°25'0 0.0
2017-Oct-11 21:28N 36°08' W 005°25'0 0.0
2017-Oct-11 20:58N 36°08' W 005°25'0 0.0
2017-Oct-11 20:28N 36°08' W 005°25'0 0.0
2017-Oct-11 19:58N 36°08' W 005°25'2 0.1
2017-Oct-11 00:00N 36°10' W 005°26'8 2.4
2017-Oct-10 20:47N 36°02' W 005°22'411.9
2017-Oct-10 20:28N 35°59' W 005°24'4 8.3
2017-Oct-10 20:01N 35°57' W 005°27'3 6.6
2017-Oct-10 19:29N 35°54' W 005°30'  

Dump ship's entire track history